createdAt,value
2023-05-22T00:01:56.722Z,31.77
2023-05-22T00:04:23.651Z,36.03
2023-05-22T00:06:50.521Z,26.40
2023-05-22T00:09:17.513Z,37.05
2023-05-22T00:11:44.314Z,29.58
2023-05-22T00:14:13.331Z,35.77
2023-05-22T00:16:40.341Z,31.00
2023-05-22T00:19:13.008Z,30.92
2023-05-22T00:21:39.977Z,28.45
2023-05-22T00:24:07.140Z,23.75
2023-05-22T00:26:33.917Z,27.87
2023-05-22T00:29:00.700Z,25.02
2023-05-22T00:31:28.694Z,28.70
2023-05-22T00:33:55.538Z,29.80
2023-05-22T00:36:22.432Z,34.30
2023-05-22T00:38:49.221Z,29.07
2023-05-22T00:41:16.059Z,32.38
2023-05-22T00:43:45.100Z,35.85
2023-05-22T00:46:12.694Z,34.58
2023-05-22T00:48:39.691Z,32.80
2023-05-22T00:51:07.239Z,37.30
2023-05-22T00:53:34.440Z,31.83
2023-05-22T00:56:01.414Z,34.55
2023-05-22T00:58:28.486Z,37.60
2023-05-22T01:00:56.320Z,32.85
2023-05-22T01:03:26.964Z,34.27
2023-05-22T01:05:55.660Z,37.72
2023-05-22T01:08:23.245Z,37.15
2023-05-22T01:11:02.230Z,36.88
2023-05-22T01:13:45.916Z,34.35
2023-05-22T01:16:29.802Z,40.83
2023-05-22T01:19:26.084Z,36.00
2023-05-22T01:22:12.204Z,39.40
2023-05-22T01:24:43.426Z,33.55
2023-05-22T01:27:42.746Z,42.05
2023-05-22T01:30:38.141Z,42.00
2023-05-22T01:33:07.941Z,40.67
2023-05-22T01:35:38.508Z,34.95
2023-05-22T01:38:06.992Z,34.10
2023-05-22T01:40:34.502Z,39.75
2023-05-22T01:43:01.911Z,31.90
2023-05-22T01:45:31.643Z,36.50
2023-05-22T01:47:58.908Z,39.20
2023-05-22T01:50:26.624Z,35.00
2023-05-22T01:53:05.859Z,37.05
2023-05-22T01:55:46.170Z,35.27
2023-05-22T01:58:26.382Z,33.15
2023-05-22T02:00:57.695Z,38.92
2023-05-22T02:03:31.081Z,28.85
2023-05-22T02:06:01.643Z,32.95
2023-05-22T02:08:28.991Z,32.57
2023-05-22T02:10:56.817Z,32.53
2023-05-22T02:13:24.337Z,39.35
2023-05-22T02:15:52.277Z,31.20
2023-05-22T02:18:19.137Z,30.55
2023-05-22T02:20:49.051Z,40.17
2023-05-22T02:23:15.913Z,31.25
2023-05-22T02:25:42.674Z,33.80
2023-05-22T02:28:10.070Z,32.78
2023-05-22T02:30:37.153Z,34.88
2023-05-22T02:33:05.930Z,33.47
2023-05-22T02:35:32.878Z,29.70
2023-05-22T02:37:59.670Z,34.95
2023-05-22T02:40:26.479Z,31.58
2023-05-22T02:42:53.304Z,36.42
2023-05-22T02:45:20.468Z,32.70
2023-05-22T02:47:47.320Z,34.45
2023-05-22T02:50:14.649Z,30.15
2023-05-22T02:52:41.512Z,29.92
2023-05-22T02:55:09.049Z,29.52
2023-05-22T02:57:35.900Z,33.43
2023-05-22T03:00:07.005Z,34.00
2023-05-22T03:02:34.792Z,31.42
2023-05-22T03:05:01.740Z,36.92
2023-05-22T03:07:29.638Z,34.72
2023-05-22T03:09:56.884Z,38.83
2023-05-22T03:12:23.751Z,41.72
2023-05-22T03:14:50.744Z,30.90
2023-05-22T03:17:17.682Z,35.90
2023-05-22T03:19:44.499Z,38.92
2023-05-22T03:22:11.388Z,33.87
2023-05-22T03:24:39.020Z,38.65
2023-05-22T03:27:07.562Z,31.33
2023-05-22T03:29:38.969Z,37.22
2023-05-22T03:32:06.107Z,34.45
2023-05-22T03:34:32.916Z,37.53
2023-05-22T03:37:00.667Z,42.38
2023-05-22T03:39:27.527Z,43.13
2023-05-22T03:41:59.180Z,42.00
2023-05-22T03:44:26.913Z,46.95
2023-05-22T03:46:54.354Z,86.90
2023-05-22T03:49:21.126Z,39.17
2023-05-22T03:51:47.846Z,38.38
2023-05-22T03:54:15.983Z,32.90
2023-05-22T03:56:43.472Z,66.55
2023-05-22T03:59:10.267Z,51.97
2023-05-22T04:01:39.305Z,58.70
2023-05-22T04:04:06.256Z,37.85
2023-05-22T04:06:33.270Z,44.83
2023-05-22T04:09:00.725Z,36.95
2023-05-22T04:11:30.388Z,30.50
2023-05-22T04:13:57.198Z,39.75
2023-05-22T04:16:24.007Z,26.52
2023-05-22T04:18:50.913Z,48.38
2023-05-22T04:21:19.045Z,31.35
2023-05-22T04:23:45.888Z,70.73
2023-05-22T04:26:13.160Z,84.43
2023-05-22T04:28:40.376Z,39.65
2023-05-22T04:31:07.182Z,58.65
2023-05-22T04:33:34.673Z,35.28
2023-05-22T04:36:02.379Z,24.67
2023-05-22T04:38:29.344Z,29.98
2023-05-22T04:40:57.004Z,35.70
2023-05-22T04:43:26.625Z,36.22
2023-05-22T04:45:54.651Z,29.77
2023-05-22T04:48:21.468Z,26.23
2023-05-22T04:50:49.849Z,27.65
2023-05-22T04:53:16.768Z,30.98
2023-05-22T04:55:44.581Z,29.02
2023-05-22T04:58:11.632Z,27.38
2023-05-22T05:00:39.670Z,29.63
2023-05-22T05:03:08.270Z,30.23
2023-05-22T05:05:35.379Z,33.13
2023-05-22T05:08:02.458Z,29.52
2023-05-22T05:10:29.317Z,31.90
2023-05-22T05:12:56.586Z,30.17
2023-05-22T05:15:23.897Z,29.60
2023-05-22T05:17:51.039Z,29.02
2023-05-22T05:20:17.943Z,31.45
2023-05-22T05:22:46.166Z,36.58
2023-05-22T05:25:14.121Z,32.10
2023-05-22T05:27:40.985Z,33.40
2023-05-22T05:30:09.411Z,31.98
2023-05-22T05:32:55.756Z,33.05
2023-05-22T05:35:43.209Z,33.15
2023-05-22T05:38:12.155Z,37.33
2023-05-22T05:40:41.882Z,34.92
2023-05-22T05:43:09.863Z,30.60
2023-05-22T05:45:37.217Z,35.40
2023-05-22T05:48:04.310Z,31.88
2023-05-22T05:50:31.666Z,27.93
2023-05-22T05:52:58.534Z,37.78
2023-05-22T05:55:25.584Z,29.80
2023-05-22T05:57:53.688Z,27.15
2023-05-22T06:00:42.310Z,30.10
2023-05-22T06:03:10.464Z,30.87
2023-05-22T06:05:47.945Z,33.45
2023-05-22T06:08:23.615Z,31.40
2023-05-22T06:10:50.659Z,27.60
2023-05-22T06:13:32.796Z,30.65
2023-05-22T06:16:02.749Z,30.33
2023-05-22T06:18:31.834Z,32.72
2023-05-22T06:20:59.103Z,33.78
2023-05-22T06:23:25.954Z,34.40
2023-05-22T06:25:54.642Z,34.65
2023-05-22T06:28:21.684Z,34.57
2023-05-22T06:30:49.308Z,30.38
2023-05-22T06:33:19.142Z,28.58
2023-05-22T06:35:46.091Z,35.28
2023-05-22T06:38:13.041Z,36.15
2023-05-22T06:40:41.998Z,37.27
2023-05-22T06:43:14.289Z,31.55
2023-05-22T06:45:48.440Z,28.17
2023-05-22T06:48:34.508Z,31.02
2023-05-22T06:51:11.531Z,31.33
2023-05-22T06:53:40.704Z,27.90
2023-05-22T06:56:12.962Z,29.55
2023-05-22T06:58:51.258Z,26.33
2023-05-22T07:01:19.487Z,28.00
2023-05-22T07:04:01.287Z,22.95
2023-05-22T07:06:53.934Z,27.00
2023-05-22T07:09:21.538Z,26.02
2023-05-22T07:11:49.151Z,27.77
2023-05-22T07:14:17.992Z,28.20
2023-05-22T07:16:45.855Z,26.45
2023-05-22T07:19:15.495Z,24.00
2023-05-22T07:21:42.596Z,27.65
2023-05-22T07:24:11.416Z,33.92
2023-05-22T07:26:46.264Z,27.75
2023-05-22T07:29:16.985Z,29.08
2023-05-22T07:31:47.121Z,23.67
2023-05-22T07:34:14.095Z,25.15
2023-05-22T07:36:40.888Z,26.73
2023-05-22T07:39:09.612Z,29.15
2023-05-22T07:41:39.858Z,23.83
2023-05-22T07:44:08.684Z,24.63
2023-05-22T07:46:38.140Z,24.48
2023-05-22T07:49:11.464Z,22.58
2023-05-22T07:51:41.097Z,30.67
2023-05-22T07:54:10.086Z,28.35
2023-05-22T07:56:45.624Z,24.87
2023-05-22T07:59:13.332Z,26.95
2023-05-22T08:01:41.988Z,28.58
2023-05-22T08:04:09.074Z,28.23
2023-05-22T08:06:36.358Z,29.38
2023-05-22T08:09:04.684Z,28.53
2023-05-22T08:11:32.049Z,28.17
2023-05-22T08:13:58.755Z,25.75
2023-05-22T08:16:25.905Z,25.13
2023-05-22T08:18:52.797Z,27.52
2023-05-22T08:21:19.749Z,23.83
2023-05-22T08:23:46.554Z,26.35
2023-05-22T08:26:14.517Z,25.38
2023-05-22T08:28:44.240Z,25.25
2023-05-22T08:31:11.888Z,25.80
2023-05-22T08:33:39.750Z,27.03
2023-05-22T08:36:06.845Z,22.90
2023-05-22T08:38:33.957Z,20.67
2023-05-22T08:41:00.840Z,19.60
2023-05-22T08:43:28.607Z,18.27
2023-05-22T08:46:05.911Z,20.90
2023-05-22T08:48:33.405Z,23.48
2023-05-22T08:51:07.513Z,20.15
2023-05-22T08:53:38.825Z,22.60
2023-05-22T08:56:06.962Z,20.92
2023-05-22T08:58:36.158Z,23.43
2023-05-22T09:01:04.409Z,23.00
2023-05-22T09:03:35.042Z,25.48
2023-05-22T09:06:02.374Z,21.38
2023-05-22T09:08:29.195Z,22.15
2023-05-22T09:10:56.264Z,25.80
2023-05-22T09:13:32.387Z,23.10
2023-05-22T09:16:07.368Z,24.58
2023-05-22T09:18:34.127Z,24.05
2023-05-22T09:21:03.732Z,25.13
2023-05-22T09:23:33.883Z,23.43
2023-05-22T09:26:02.509Z,21.85
2023-05-22T09:28:34.991Z,29.08
2023-05-22T09:31:04.312Z,30.30
2023-05-22T09:33:32.338Z,24.00
2023-05-22T09:35:59.718Z,30.97
2023-05-22T09:38:29.119Z,29.25
2023-05-22T09:40:56.651Z,27.55
2023-05-22T09:43:27.099Z,44.80
2023-05-22T09:46:16.630Z,30.02
2023-05-22T09:48:44.028Z,22.53
2023-05-22T09:51:12.085Z,24.85
2023-05-22T09:53:41.229Z,26.20
2023-05-22T09:56:14.700Z,21.75
2023-05-22T09:58:43.630Z,16.95
2023-05-22T10:01:13.985Z,17.27
2023-05-22T10:03:43.113Z,14.38
2023-05-22T10:06:12.347Z,16.08
2023-05-22T10:08:44.706Z,14.88
2023-05-22T10:11:11.864Z,15.75
2023-05-22T10:13:40.105Z,12.87
2023-05-22T10:16:07.826Z,16.35
2023-05-22T10:18:35.906Z,18.58
2023-05-22T10:21:03.461Z,14.93
2023-05-22T10:23:30.850Z,13.90
2023-05-22T10:25:58.194Z,14.80
2023-05-22T10:28:33.085Z,15.60
2023-05-22T10:31:06.532Z,18.67
2023-05-22T10:34:08.040Z,18.25
2023-05-22T10:36:51.448Z,19.70
2023-05-22T10:39:40.538Z,18.53
2023-05-22T10:42:13.555Z,20.35
2023-05-22T10:44:41.060Z,18.13
2023-05-22T10:47:13.334Z,17.05
2023-05-22T10:49:46.999Z,16.02
2023-05-22T10:52:18.934Z,14.93
2023-05-22T10:54:49.116Z,15.98
2023-05-22T10:57:17.885Z,15.73
2023-05-22T10:59:48.246Z,16.80
2023-05-22T11:02:31.425Z,17.67
2023-05-22T11:05:16.915Z,18.30
2023-05-22T11:07:43.665Z,21.50
2023-05-22T11:10:10.867Z,15.75
2023-05-22T11:12:37.697Z,16.63
2023-05-22T11:15:10.122Z,19.17
2023-05-22T11:17:40.076Z,16.67
2023-05-22T11:20:28.937Z,19.83
2023-05-22T11:23:01.059Z,21.55
2023-05-22T11:25:29.756Z,16.85
2023-05-22T11:27:57.568Z,15.68
2023-05-22T11:30:28.374Z,16.63
2023-05-22T11:32:57.193Z,18.67
2023-05-22T11:35:24.708Z,17.13
2023-05-22T11:37:53.272Z,16.23
2023-05-22T11:40:21.946Z,16.63
2023-05-22T11:42:48.780Z,12.87
2023-05-22T11:45:16.085Z,13.85
2023-05-22T11:47:43.758Z,13.43
2023-05-22T11:50:22.723Z,13.55
2023-05-22T11:52:54.083Z,19.52
2023-05-22T11:55:20.863Z,13.10
2023-05-22T11:57:48.132Z,12.20
2023-05-22T12:00:15.561Z,12.60
2023-05-22T12:02:49.223Z,13.02
2023-05-22T12:05:16.658Z,11.27
2023-05-22T12:07:43.655Z,10.53
2023-05-22T12:10:11.063Z,13.80
2023-05-22T12:12:38.794Z,10.55
2023-05-22T12:15:07.123Z,14.30
2023-05-22T12:17:36.903Z,17.95
2023-05-22T12:20:04.799Z,15.57
2023-05-22T12:22:31.668Z,14.75
2023-05-22T12:24:58.481Z,15.95
2023-05-22T12:27:33.020Z,16.27
2023-05-22T12:30:10.354Z,13.85
2023-05-22T12:32:37.210Z,11.83
2023-05-22T12:35:04.240Z,12.10
2023-05-22T12:37:33.753Z,15.75
2023-05-22T12:40:03.172Z,13.68
2023-05-22T12:42:30.039Z,13.88
2023-05-22T12:44:58.051Z,12.50
2023-05-22T12:47:25.738Z,11.30
2023-05-22T12:49:53.050Z,13.93
2023-05-22T12:52:19.834Z,13.90
2023-05-22T12:54:46.796Z,12.48
2023-05-22T12:57:13.609Z,14.60
2023-05-22T12:59:41.270Z,14.23
2023-05-22T13:02:08.339Z,13.95
2023-05-22T13:04:35.343Z,15.63
2023-05-22T13:07:02.210Z,20.35
2023-05-22T13:09:29.046Z,19.83
2023-05-22T13:11:56.456Z,18.10
2023-05-22T13:14:23.285Z,18.95
2023-05-22T13:16:50.049Z,21.15
2023-05-22T13:19:17.075Z,20.38
2023-05-22T13:21:43.979Z,23.47
2023-05-22T13:24:10.942Z,15.95
2023-05-22T13:26:37.746Z,16.75
2023-05-22T13:29:04.857Z,19.92
2023-05-22T13:31:37.158Z,15.73
2023-05-22T13:34:04.975Z,17.20
2023-05-22T13:36:32.373Z,20.40
2023-05-22T13:38:59.360Z,13.35
2023-05-22T13:41:26.410Z,17.05
2023-05-22T13:43:53.329Z,13.55
2023-05-22T13:46:21.814Z,12.57
2023-05-22T13:48:48.834Z,14.35
2023-05-22T13:51:16.067Z,12.15
2023-05-22T13:53:42.931Z,11.75
2023-05-22T13:56:09.692Z,12.20
2023-05-22T13:58:36.560Z,13.90
2023-05-22T14:01:03.390Z,12.80
2023-05-22T14:03:30.352Z,11.15
2023-05-22T14:05:57.230Z,10.88
2023-05-22T14:08:24.766Z,12.77
2023-05-22T14:10:51.591Z,11.00
2023-05-22T14:13:18.573Z,12.68
2023-05-22T14:15:46.942Z,10.15
2023-05-22T14:18:16.204Z,13.95
2023-05-22T14:20:43.899Z,10.88
2023-05-22T14:23:11.713Z,10.27
2023-05-22T14:25:42.800Z,14.75
2023-05-22T14:28:11.016Z,12.50
2023-05-22T14:30:38.247Z,12.80
2023-05-22T14:33:05.715Z,10.20
2023-05-22T14:35:33.163Z,14.63
2023-05-22T14:37:59.984Z,13.27
2023-05-22T14:40:26.715Z,12.20
2023-05-22T14:42:54.365Z,14.45
2023-05-22T14:45:21.555Z,14.93
2023-05-22T14:47:48.373Z,11.00
2023-05-22T14:50:22.489Z,10.82
2023-05-22T14:52:49.774Z,14.55
2023-05-22T14:55:17.364Z,10.57
2023-05-22T14:57:44.312Z,11.23
2023-05-22T15:00:12.353Z,15.83
2023-05-22T15:02:39.575Z,8.73
2023-05-22T15:05:07.163Z,10.82
2023-05-22T15:10:05.019Z,12.32
2023-05-22T15:12:32.464Z,11.93
2023-05-22T15:14:59.215Z,9.38
2023-05-22T15:17:26.003Z,9.45
2023-05-22T15:19:52.889Z,8.48
2023-05-22T15:22:20.255Z,8.18
2023-05-22T15:24:47.538Z,6.77
2023-05-22T15:27:14.322Z,8.80
2023-05-22T15:29:41.674Z,7.20
2023-05-22T15:32:09.026Z,7.85
2023-05-22T15:34:35.911Z,6.57
2023-05-22T15:37:02.670Z,6.60
2023-05-22T15:39:29.664Z,7.47
2023-05-22T15:42:05.748Z,7.65
2023-05-22T15:44:33.479Z,5.88
2023-05-22T15:47:00.297Z,4.70
2023-05-22T15:49:28.718Z,6.47
2023-05-22T15:51:58.550Z,6.13
2023-05-22T15:54:25.369Z,5.93
2023-05-22T15:56:52.199Z,5.90
2023-05-22T15:59:18.916Z,7.03
2023-05-22T16:01:45.808Z,5.10
2023-05-22T16:04:12.594Z,5.82
2023-05-22T16:06:39.372Z,6.97
2023-05-22T16:09:06.316Z,5.93
2023-05-22T16:11:33.525Z,5.85
2023-05-22T16:14:00.356Z,6.20
2023-05-22T16:16:27.239Z,7.22
2023-05-22T16:18:54.133Z,6.57
2023-05-22T16:21:20.958Z,8.43
2023-05-22T16:23:47.993Z,5.05
2023-05-22T16:26:14.949Z,7.10
2023-05-22T16:28:41.718Z,11.40
2023-05-22T16:31:08.583Z,8.05
2023-05-22T16:33:37.467Z,13.98
2023-05-22T16:36:05.070Z,11.52
2023-05-22T16:38:31.906Z,8.40
2023-05-22T16:40:58.929Z,8.18
2023-05-22T16:43:25.748Z,8.82
2023-05-22T16:45:52.528Z,5.72
2023-05-22T16:48:19.378Z,8.23
2023-05-22T16:50:46.700Z,8.50
2023-05-22T16:53:16.646Z,5.63
2023-05-22T16:55:43.667Z,6.97
2023-05-22T16:58:11.609Z,5.60
2023-05-22T17:00:40.089Z,6.22
2023-05-22T17:03:08.222Z,6.80
2023-05-22T17:05:35.740Z,7.28
2023-05-22T17:08:03.093Z,9.63
2023-05-22T17:10:30.090Z,7.22
2023-05-22T17:12:56.932Z,8.38
2023-05-22T17:15:23.797Z,10.60
2023-05-22T17:17:51.178Z,7.53
2023-05-22T17:20:18.851Z,10.15
2023-05-22T17:22:45.703Z,7.65
2023-05-22T17:25:13.200Z,6.45
2023-05-22T17:27:39.975Z,9.40
2023-05-22T17:30:07.837Z,7.38
2023-05-22T17:32:35.736Z,10.45
2023-05-22T17:35:02.687Z,8.63
2023-05-22T17:37:29.509Z,8.77
2023-05-22T17:39:56.303Z,9.00
2023-05-22T17:42:23.139Z,8.48
2023-05-22T17:44:49.952Z,9.23
2023-05-22T17:47:16.793Z,10.82
2023-05-22T17:49:43.543Z,9.95
2023-05-22T17:52:11.861Z,10.33
2023-05-22T17:54:38.629Z,9.25
2023-05-22T17:57:05.594Z,8.40
2023-05-22T17:59:32.742Z,11.38
2023-05-22T18:01:59.761Z,9.32
2023-05-22T18:04:26.568Z,8.93
2023-05-22T18:06:53.419Z,12.38
2023-05-22T18:09:20.238Z,10.73
2023-05-22T18:11:47.162Z,13.60
2023-05-22T18:14:13.894Z,10.48
2023-05-22T18:16:40.870Z,12.43
2023-05-22T18:19:07.660Z,8.57
2023-05-22T18:21:34.551Z,9.70
2023-05-22T18:24:01.423Z,9.75
2023-05-22T18:26:28.245Z,11.88
2023-05-22T18:28:55.067Z,14.50
2023-05-22T18:31:22.532Z,12.63
2023-05-22T18:33:49.323Z,10.05
2023-05-22T18:36:16.190Z,10.35
2023-05-22T18:38:43.151Z,10.20
2023-05-22T18:41:09.879Z,9.20
2023-05-22T18:43:36.628Z,11.18
2023-05-22T18:46:03.401Z,11.10
2023-05-22T18:48:30.948Z,11.25
2023-05-22T18:50:58.848Z,10.75
2023-05-22T18:53:26.114Z,12.97
2023-05-22T18:55:53.952Z,10.65
2023-05-22T18:58:21.074Z,11.75
2023-05-22T19:00:48.096Z,13.20
2023-05-22T19:03:15.101Z,12.55
2023-05-22T19:05:42.006Z,11.67
2023-05-22T19:08:09.511Z,14.95
2023-05-22T19:10:36.260Z,14.63
2023-05-22T19:13:03.037Z,12.73
2023-05-22T19:15:29.817Z,12.00
2023-05-22T19:17:56.595Z,11.60
2023-05-22T19:20:24.004Z,17.55
2023-05-22T19:22:51.374Z,11.93
2023-05-22T19:25:18.554Z,11.50
2023-05-22T19:27:45.892Z,14.27
2023-05-22T19:30:15.256Z,13.53
2023-05-22T19:32:43.511Z,25.25
2023-05-22T19:35:11.250Z,12.13
2023-05-22T19:37:38.061Z,13.85
2023-05-22T19:40:05.971Z,13.98
2023-05-22T19:42:32.890Z,12.33
2023-05-22T19:44:59.678Z,13.55
2023-05-22T19:47:27.204Z,12.95
2023-05-22T19:49:54.152Z,15.15
2023-05-22T19:52:21.010Z,12.60
2023-05-22T19:54:47.788Z,18.97
2023-05-22T19:57:14.823Z,15.93
2023-05-22T19:59:41.550Z,12.98
2023-05-22T20:02:08.501Z,14.07
2023-05-22T20:04:35.448Z,15.43
2023-05-22T20:07:03.709Z,15.00
2023-05-22T20:09:30.494Z,16.60
2023-05-22T20:11:57.295Z,16.77
2023-05-22T20:14:24.466Z,15.75
2023-05-22T20:16:51.468Z,17.75
2023-05-22T20:19:18.926Z,18.40
2023-05-22T20:21:49.056Z,13.88
2023-05-22T20:24:19.766Z,16.55
2023-05-22T20:26:47.453Z,13.48
2023-05-22T20:29:14.710Z,15.75
2023-05-22T20:31:41.664Z,23.50
2023-05-22T20:34:09.527Z,19.45
2023-05-22T20:36:36.693Z,16.55
2023-05-22T20:39:03.625Z,14.43
2023-05-22T20:41:30.419Z,16.40
2023-05-22T20:43:58.511Z,15.13
2023-05-22T20:46:26.566Z,16.00
2023-05-22T20:48:54.332Z,12.63
2023-05-22T20:51:21.297Z,13.10
2023-05-22T20:53:48.452Z,11.68
2023-05-22T20:56:15.557Z,10.93
2023-05-22T20:58:42.550Z,10.65
2023-05-22T21:01:09.481Z,10.43
2023-05-22T21:03:36.519Z,9.95
2023-05-22T21:06:03.427Z,10.02
2023-05-22T21:08:30.540Z,9.63
2023-05-22T21:10:57.387Z,8.05
2023-05-22T21:13:24.133Z,11.57
2023-05-22T21:15:51.286Z,10.77
2023-05-22T21:18:19.795Z,7.82
2023-05-22T21:20:46.678Z,10.57
2023-05-22T21:23:13.508Z,9.45
2023-05-22T21:25:40.393Z,11.30
2023-05-22T21:28:07.868Z,8.32
2023-05-22T21:30:34.708Z,8.65
2023-05-22T21:33:01.751Z,7.60
2023-05-22T21:35:28.730Z,9.38
2023-05-22T21:37:55.653Z,8.93
2023-05-22T21:40:23.311Z,8.75
2023-05-22T21:42:50.115Z,7.68
2023-05-22T21:45:16.917Z,8.43
2023-05-22T21:47:43.911Z,11.02
2023-05-22T21:50:11.257Z,9.00
2023-05-22T21:52:38.111Z,7.68
2023-05-22T21:55:05.957Z,9.35
2023-05-22T21:57:33.015Z,8.33
2023-05-22T21:59:59.770Z,11.07
2023-05-22T22:02:26.664Z,9.88
2023-05-22T22:04:53.469Z,10.07
2023-05-22T22:07:20.313Z,9.30
2023-05-22T22:09:47.091Z,8.17
2023-05-22T22:12:13.881Z,10.15
2023-05-22T22:14:40.889Z,7.20
2023-05-22T22:17:09.027Z,9.55
2023-05-22T22:19:36.128Z,9.25
2023-05-22T22:22:03.325Z,9.00
2023-05-22T22:24:30.198Z,9.27
2023-05-22T22:26:57.138Z,8.77
2023-05-22T22:29:24.019Z,12.38
2023-05-22T22:31:50.826Z,10.07
2023-05-22T22:34:17.650Z,9.63
2023-05-22T22:36:44.537Z,8.80
2023-05-22T22:39:12.405Z,14.20
2023-05-22T22:41:39.201Z,10.13
2023-05-22T22:44:06.009Z,10.85
2023-05-22T22:46:32.941Z,10.33
2023-05-22T22:49:01.774Z,11.10
2023-05-22T22:51:31.689Z,8.77
2023-05-22T22:53:58.525Z,11.13
2023-05-22T22:56:29.183Z,14.40
2023-05-22T22:58:57.009Z,9.80
2023-05-22T23:01:24.103Z,13.02
2023-05-22T23:03:51.512Z,12.07
2023-05-22T23:06:19.315Z,13.80
2023-05-22T23:08:46.148Z,13.50
2023-05-22T23:11:12.955Z,13.87
2023-05-22T23:13:41.282Z,10.90
2023-05-22T23:16:08.340Z,14.35
2023-05-22T23:18:36.282Z,13.35
2023-05-22T23:21:03.039Z,11.90
2023-05-22T23:23:29.806Z,13.27
2023-05-22T23:25:58.837Z,15.40
2023-05-22T23:28:25.890Z,11.65
2023-05-22T23:30:52.928Z,13.93
2023-05-22T23:33:19.792Z,11.65
2023-05-22T23:35:46.587Z,14.27
2023-05-22T23:38:13.568Z,18.50
2023-05-22T23:40:40.296Z,18.30
2023-05-22T23:43:07.037Z,21.20
2023-05-22T23:45:33.885Z,17.23
2023-05-22T23:48:00.728Z,13.07
2023-05-22T23:50:27.483Z,13.95
2023-05-22T23:52:54.391Z,18.02
2023-05-22T23:55:21.216Z,19.55
2023-05-22T23:57:47.973Z,15.40
